sensor_id;sensor_type;location;lat;lon;timestamp;pressure;altitude;pressure_sealevel;temperature;humidity
64460;BME280;50828;53.756;21.140;2023-08-30T00:03:34;98618.48;;;20.22;70.89
64460;BME280;50828;53.756;21.140;2023-08-30T00:08:41;98611.13;;;20.21;71.10
64460;BME280;50828;53.756;21.140;2023-08-30T00:13:48;98599.85;;;20.19;71.11
64460;BME280;50828;53.756;21.140;2023-08-30T00:18:55;98616.98;;;20.18;71.23
64460;BME280;50828;53.756;21.140;2023-08-30T00:24:03;98637.08;;;20.17;71.26
64460;BME280;50828;53.756;21.140;2023-08-30T00:29:11;98688.27;;;20.13;71.50
64460;BME280;50828;53.756;21.140;2023-08-30T00:34:18;98661.84;;;20.06;71.31
64460;BME280;50828;53.756;21.140;2023-08-30T00:39:26;98616.98;;;19.93;71.47
64460;BME280;50828;53.756;21.140;2023-08-30T00:44:33;98596.16;;;19.82;71.74
64460;BME280;50828;53.756;21.140;2023-08-30T00:49:41;98572.16;;;19.69;72.08
64460;BME280;50828;53.756;21.140;2023-08-30T00:54:49;98562.48;;;19.60;72.15
64460;BME280;50828;53.756;21.140;2023-08-30T00:59:57;98558.58;;;19.49;72.30
64460;BME280;50828;53.756;21.140;2023-08-30T01:05:06;98550.77;;;19.46;72.51
64460;BME280;50828;53.756;21.140;2023-08-30T01:10:14;98545.21;;;19.40;72.59
64460;BME280;50828;53.756;21.140;2023-08-30T01:15:22;98554.21;;;19.34;72.76
64460;BME280;50828;53.756;21.140;2023-08-30T01:20:32;98557.58;;;19.28;73.01
64460;BME280;50828;53.756;21.140;2023-08-30T01:25:52;98571.15;;;19.22;73.11
64460;BME280;50828;53.756;21.140;2023-08-30T01:31:04;98585.45;;;19.15;73.36
64460;BME280;50828;53.756;21.140;2023-08-30T01:36:14;98595.77;;;19.10;73.25
64460;BME280;50828;53.756;21.140;2023-08-30T01:41:22;98605.31;;;19.05;73.50
64460;BME280;50828;53.756;21.140;2023-08-30T01:46:30;98606.54;;;19.02;73.60
64460;BME280;50828;53.756;21.140;2023-08-30T01:51:38;98607.18;;;18.99;73.82
64460;BME280;50828;53.756;21.140;2023-08-30T01:56:47;98618.50;;;18.98;74.06
64460;BME280;50828;53.756;21.140;2023-08-30T02:01:55;98610.99;;;18.97;74.13
64460;BME280;50828;53.756;21.140;2023-08-30T02:07:08;98600.15;;;18.95;74.08
64460;BME280;50828;53.756;21.140;2023-08-30T02:12:17;98582.98;;;18.91;74.28
64460;BME280;50828;53.756;21.140;2023-08-30T02:17:27;98577.10;;;18.87;74.30
64460;BME280;50828;53.756;21.140;2023-08-30T02:22:36;98581.96;;;18.83;74.42
64460;BME280;50828;53.756;21.140;2023-08-30T02:27:44;98583.95;;;18.79;74.49
64460;BME280;50828;53.756;21.140;2023-08-30T02:32:51;98604.96;;;18.79;74.73
64460;BME280;50828;53.756;21.140;2023-08-30T02:38:00;98627.52;;;18.82;74.77
64460;BME280;50828;53.756;21.140;2023-08-30T02:43:11;98630.23;;;18.84;74.65
64460;BME280;50828;53.756;21.140;2023-08-30T02:48:19;98638.20;;;18.84;74.74
64460;BME280;50828;53.756;21.140;2023-08-30T02:53:27;98640.14;;;18.88;74.81
64460;BME280;50828;53.756;21.140;2023-08-30T02:58:35;98651.05;;;18.92;74.95
64460;BME280;50828;53.756;21.140;2023-08-30T03:03:42;98663.79;;;18.95;74.87
64460;BME280;50828;53.756;21.140;2023-08-30T03:08:50;98657.70;;;18.97;75.02
64460;BME280;50828;53.756;21.140;2023-08-30T03:13:58;98645.84;;;18.96;74.97
64460;BME280;50828;53.756;21.140;2023-08-30T03:19:06;98639.16;;;19.00;74.99
64460;BME280;50828;53.756;21.140;2023-08-30T03:24:13;98641.48;;;19.00;75.02
64460;BME280;50828;53.756;21.140;2023-08-30T03:29:22;98641.55;;;19.01;75.08
64460;BME280;50828;53.756;21.140;2023-08-30T03:34:29;98629.05;;;19.03;75.07
64460;BME280;50828;53.756;21.140;2023-08-30T03:39:38;98623.17;;;19.03;75.16
64460;BME280;50828;53.756;21.140;2023-08-30T03:44:46;98619.88;;;19.06;75.18
64460;BME280;50828;53.756;21.140;2023-08-30T03:49:53;98624.35;;;19.07;75.00
64460;BME280;50828;53.756;21.140;2023-08-30T03:55:01;98628.67;;;19.08;74.99
64460;BME280;50828;53.756;21.140;2023-08-30T04:00:10;98616.11;;;19.10;75.17
64460;BME280;50828;53.756;21.140;2023-08-30T04:05:18;98601.54;;;19.11;75.00
64460;BME280;50828;53.756;21.140;2023-08-30T04:10:27;98591.06;;;19.10;75.00
64460;BME280;50828;53.756;21.140;2023-08-30T04:15:36;98583.69;;;19.09;75.10
64460;BME280;50828;53.756;21.140;2023-08-30T04:20:47;98592.38;;;19.08;75.22
64460;BME280;50828;53.756;21.140;2023-08-30T04:25:55;98615.45;;;19.05;75.12
64460;BME280;50828;53.756;21.140;2023-08-30T04:31:03;98623.13;;;19.05;75.32
64460;BME280;50828;53.756;21.140;2023-08-30T04:36:11;98620.45;;;19.02;75.27
64460;BME280;50828;53.756;21.140;2023-08-30T04:41:19;98626.48;;;19.02;75.36
64460;BME280;50828;53.756;21.140;2023-08-30T04:46:27;98627.30;;;19.01;75.29
64460;BME280;50828;53.756;21.140;2023-08-30T04:51:35;98633.65;;;19.01;75.45
64460;BME280;50828;53.756;21.140;2023-08-30T04:56:43;98631.67;;;19.00;75.55
64460;BME280;50828;53.756;21.140;2023-08-30T05:01:52;98638.05;;;19.02;75.55
64460;BME280;50828;53.756;21.140;2023-08-30T05:07:03;98644.36;;;19.02;75.72
64460;BME280;50828;53.756;21.140;2023-08-30T05:12:11;98650.38;;;19.02;75.80
64460;BME280;50828;53.756;21.140;2023-08-30T05:17:20;98645.02;;;19.00;75.90
64460;BME280;50828;53.756;21.140;2023-08-30T05:22:28;98648.98;;;19.02;75.92
64460;BME280;50828;53.756;21.140;2023-08-30T05:27:37;98666.33;;;19.03;75.91
64460;BME280;50828;53.756;21.140;2023-08-30T05:32:46;98669.09;;;19.06;76.03
64460;BME280;50828;53.756;21.140;2023-08-30T05:38:13;98671.39;;;19.12;76.11
64460;BME280;50828;53.756;21.140;2023-08-30T05:43:37;98672.79;;;19.17;76.06
64460;BME280;50828;53.756;21.140;2023-08-30T05:48:45;98673.67;;;19.23;75.93
64460;BME280;50828;53.756;21.140;2023-08-30T05:53:53;98677.94;;;19.27;75.93
64460;BME280;50828;53.756;21.140;2023-08-30T05:59:01;98675.88;;;19.31;75.85
64460;BME280;50828;53.756;21.140;2023-08-30T06:04:10;98684.24;;;19.35;75.84
64460;BME280;50828;53.756;21.140;2023-08-30T06:09:20;98682.98;;;19.35;75.72
64460;BME280;50828;53.756;21.140;2023-08-30T06:14:28;98691.93;;;19.35;75.56
64460;BME280;50828;53.756;21.140;2023-08-30T06:19:37;98699.00;;;19.34;75.44
64460;BME280;50828;53.756;21.140;2023-08-30T06:24:45;98703.92;;;19.33;75.31
64460;BME280;50828;53.756;21.140;2023-08-30T06:29:53;98710.02;;;19.34;75.32
64460;BME280;50828;53.756;21.140;2023-08-30T06:35:01;98703.13;;;19.34;75.15
64460;BME280;50828;53.756;21.140;2023-08-30T06:40:12;98707.45;;;19.33;75.07
64460;BME280;50828;53.756;21.140;2023-08-30T06:45:20;98724.73;;;19.34;75.09
64460;BME280;50828;53.756;21.140;2023-08-30T06:50:28;98724.00;;;19.34;75.18
64460;BME280;50828;53.756;21.140;2023-08-30T06:55:36;98720.94;;;19.34;75.03
64460;BME280;50828;53.756;21.140;2023-08-30T07:00:44;98735.09;;;19.33;74.97
64460;BME280;50828;53.756;21.140;2023-08-30T07:05:54;98759.05;;;19.39;75.08
64460;BME280;50828;53.756;21.140;2023-08-30T07:11:02;98759.55;;;19.39;74.87
64460;BME280;50828;53.756;21.140;2023-08-30T07:16:18;98755.06;;;19.37;74.97
64460;BME280;50828;53.756;21.140;2023-08-30T07:21:29;98750.79;;;19.34;74.87
64460;BME280;50828;53.756;21.140;2023-08-30T07:26:38;98758.89;;;19.40;74.72
64460;BME280;50828;53.756;21.140;2023-08-30T07:31:46;98774.98;;;19.49;74.84
64460;BME280;50828;53.756;21.140;2023-08-30T07:36:55;98780.25;;;19.53;74.64
64460;BME280;50828;53.756;21.140;2023-08-30T07:42:02;98778.45;;;19.57;74.64
64460;BME280;50828;53.756;21.140;2023-08-30T07:47:10;98781.04;;;19.58;74.22
64460;BME280;50828;53.756;21.140;2023-08-30T07:52:17;98773.22;;;19.59;74.30
64460;BME280;50828;53.756;21.140;2023-08-30T07:57:37;98771.17;;;19.60;74.12
64460;BME280;50828;53.756;21.140;2023-08-30T08:08:32;98773.36;;;19.64;74.19
64460;BME280;50828;53.756;21.140;2023-08-30T08:13:39;98773.11;;;19.66;74.15
64460;BME280;50828;53.756;21.140;2023-08-30T08:18:48;98780.14;;;19.67;74.00
64460;BME280;50828;53.756;21.140;2023-08-30T08:23:56;98775.89;;;19.62;73.79
64460;BME280;50828;53.756;21.140;2023-08-30T08:29:03;98787.95;;;19.70;73.72
64460;BME280;50828;53.756;21.140;2023-08-30T08:34:12;98776.89;;;19.73;73.89
64460;BME280;50828;53.756;21.140;2023-08-30T08:39:19;98776.75;;;19.76;73.79
64460;BME280;50828;53.756;21.140;2023-08-30T08:44:29;98780.84;;;19.80;73.83
64460;BME280;50828;53.756;21.140;2023-08-30T08:49:38;98771.77;;;19.84;73.60
64460;BME280;50828;53.756;21.140;2023-08-30T08:54:46;98776.57;;;19.86;73.65
64460;BME280;50828;53.756;21.140;2023-08-30T08:59:56;98772.73;;;19.87;73.72
64460;BME280;50828;53.756;21.140;2023-08-30T09:05:04;98773.75;;;19.89;73.72
64460;BME280;50828;53.756;21.140;2023-08-30T09:10:12;98775.37;;;19.89;73.52
64460;BME280;50828;53.756;21.140;2023-08-30T09:15:20;98763.67;;;19.91;73.59
64460;BME280;50828;53.756;21.140;2023-08-30T09:20:28;98765.81;;;19.91;73.61
64460;BME280;50828;53.756;21.140;2023-08-30T09:25:35;98766.91;;;19.93;73.68
64460;BME280;50828;53.756;21.140;2023-08-30T09:30:42;98771.17;;;19.93;73.78
64460;BME280;50828;53.756;21.140;2023-08-30T09:35:56;98769.21;;;19.93;73.74
64460;BME280;50828;53.756;21.140;2023-08-30T09:41:07;98770.66;;;19.95;73.77
64460;BME280;50828;53.756;21.140;2023-08-30T09:46:14;98761.09;;;19.96;73.88
64460;BME280;50828;53.756;21.140;2023-08-30T09:51:25;98757.85;;;19.97;73.88
64460;BME280;50828;53.756;21.140;2023-08-30T09:56:34;98758.70;;;20.02;73.92
64460;BME280;50828;53.756;21.140;2023-08-30T10:01:43;98759.61;;;20.05;73.80
64460;BME280;50828;53.756;21.140;2023-08-30T10:06:50;98760.41;;;20.08;73.77
64460;BME280;50828;53.756;21.140;2023-08-30T10:11:59;98763.61;;;20.11;73.78
64460;BME280;50828;53.756;21.140;2023-08-30T10:17:10;98757.11;;;20.14;73.81
64460;BME280;50828;53.756;21.140;2023-08-30T10:22:19;98753.41;;;20.17;73.70
64460;BME280;50828;53.756;21.140;2023-08-30T10:27:28;98752.91;;;20.18;73.74
64460;BME280;50828;53.756;21.140;2023-08-30T10:32:41;98748.16;;;20.19;73.79
64460;BME280;50828;53.756;21.140;2023-08-30T10:37:58;98747.14;;;20.21;73.75
64460;BME280;50828;53.756;21.140;2023-08-30T10:43:06;98749.25;;;20.21;73.55
64460;BME280;50828;53.756;21.140;2023-08-30T10:48:14;98743.69;;;20.21;73.72
64460;BME280;50828;53.756;21.140;2023-08-30T10:53:30;98742.59;;;20.22;73.75
64460;BME280;50828;53.756;21.140;2023-08-30T10:58:44;98737.84;;;20.22;73.76
64460;BME280;50828;53.756;21.140;2023-08-30T11:03:52;98735.23;;;20.24;73.68
64460;BME280;50828;53.756;21.140;2023-08-30T11:09:20;98733.89;;;20.24;73.76
64460;BME280;50828;53.756;21.140;2023-08-30T11:14:28;98732.73;;;20.25;73.76
64460;BME280;50828;53.756;21.140;2023-08-30T11:19:36;98727.91;;;20.27;73.76
64460;BME280;50828;53.756;21.140;2023-08-30T11:24:43;98713.73;;;20.27;73.88
64460;BME280;50828;53.756;21.140;2023-08-30T11:29:54;98711.86;;;20.28;73.75
64460;BME280;50828;53.756;21.140;2023-08-30T11:35:04;98709.48;;;20.29;73.77
64460;BME280;50828;53.756;21.140;2023-08-30T11:40:13;98707.35;;;20.29;73.61
64460;BME280;50828;53.756;21.140;2023-08-30T11:45:20;98701.24;;;20.29;73.45
64460;BME280;50828;53.756;21.140;2023-08-30T11:50:28;98690.65;;;20.28;73.51
64460;BME280;50828;53.756;21.140;2023-08-30T11:55:51;98687.11;;;20.29;73.48
64460;BME280;50828;53.756;21.140;2023-08-30T12:00:59;98682.11;;;20.28;73.41
64460;BME280;50828;53.756;21.140;2023-08-30T12:06:10;98686.48;;;20.27;73.32
64460;BME280;50828;53.756;21.140;2023-08-30T12:11:21;98691.23;;;20.25;73.30
64460;BME280;50828;53.756;21.140;2023-08-30T12:16:28;98689.54;;;20.21;73.18
64460;BME280;50828;53.756;21.140;2023-08-30T12:21:42;98678.59;;;20.18;73.12
64460;BME280;50828;53.756;21.140;2023-08-30T12:26:50;98677.27;;;20.14;73.09
64460;BME280;50828;53.756;21.140;2023-08-30T12:31:57;98685.25;;;20.07;73.30
64460;BME280;50828;53.756;21.140;2023-08-30T12:37:10;98687.88;;;19.99;73.17
64460;BME280;50828;53.756;21.140;2023-08-30T12:42:17;98684.92;;;19.88;73.16
64460;BME280;50828;53.756;21.140;2023-08-30T12:47:25;98667.48;;;19.74;73.24
64460;BME280;50828;53.756;21.140;2023-08-30T12:52:34;98664.27;;;19.64;73.53
64460;BME280;50828;53.756;21.140;2023-08-30T12:58:03;98656.59;;;19.53;73.56
64460;BME280;50828;53.756;21.140;2023-08-30T13:03:11;98663.86;;;19.39;73.68
64460;BME280;50828;53.756;21.140;2023-08-30T13:08:21;98666.55;;;19.28;73.81
64460;BME280;50828;53.756;21.140;2023-08-30T13:13:29;98663.94;;;19.18;74.05
64460;BME280;50828;53.756;21.140;2023-08-30T13:18:37;98659.00;;;19.11;74.21
64460;BME280;50828;53.756;21.140;2023-08-30T13:23:45;98649.17;;;19.03;74.40
64460;BME280;50828;53.756;21.140;2023-08-30T13:28:55;98653.13;;;18.99;74.49
64460;BME280;50828;53.756;21.140;2023-08-30T13:34:04;98652.48;;;18.95;74.55
64460;BME280;50828;53.756;21.140;2023-08-30T13:39:11;98639.85;;;18.89;74.65
64460;BME280;50828;53.756;21.140;2023-08-30T13:44:20;98637.31;;;18.84;74.80
64460;BME280;50828;53.756;21.140;2023-08-30T13:49:28;98623.39;;;18.79;74.89
64460;BME280;50828;53.756;21.140;2023-08-30T13:54:36;98619.05;;;18.76;75.19
64460;BME280;50828;53.756;21.140;2023-08-30T13:59:44;98615.02;;;18.73;75.35
64460;BME280;50828;53.756;21.140;2023-08-30T14:04:53;98616.21;;;18.74;75.43
64460;BME280;50828;53.756;21.140;2023-08-30T14:10:00;98608.57;;;18.77;75.65
64460;BME280;50828;53.756;21.140;2023-08-30T14:15:09;98609.95;;;18.81;75.89
64460;BME280;50828;53.756;21.140;2023-08-30T14:20:18;98609.59;;;18.87;75.90
64460;BME280;50828;53.756;21.140;2023-08-30T14:25:25;98623.16;;;18.92;75.82
64460;BME280;50828;53.756;21.140;2023-08-30T14:30:33;98635.78;;;18.97;75.94
64460;BME280;50828;53.756;21.140;2023-08-30T14:35:44;98642.94;;;18.96;76.07
64460;BME280;50828;53.756;21.140;2023-08-30T14:40:58;98646.75;;;18.94;76.09
64460;BME280;50828;53.756;21.140;2023-08-30T14:46:07;98640.11;;;18.88;76.02
64460;BME280;50828;53.756;21.140;2023-08-30T14:51:20;98649.08;;;18.86;76.07
64460;BME280;50828;53.756;21.140;2023-08-30T14:56:28;98661.33;;;18.83;75.99
64460;BME280;50828;53.756;21.140;2023-08-30T15:01:37;98661.79;;;18.78;76.06
64460;BME280;50828;53.756;21.140;2023-08-30T15:06:46;98669.85;;;18.72;75.98
64460;BME280;50828;53.756;21.140;2023-08-30T15:11:57;98665.77;;;18.66;76.16
64460;BME280;50828;53.756;21.140;2023-08-30T15:17:05;98673.77;;;18.63;75.99
64460;BME280;50828;53.756;21.140;2023-08-30T15:22:24;98676.83;;;18.61;76.16
64460;BME280;50828;53.756;21.140;2023-08-30T15:27:32;98683.02;;;18.59;76.38
64460;BME280;50828;53.756;21.140;2023-08-30T15:32:40;98691.65;;;18.59;76.29
64460;BME280;50828;53.756;21.140;2023-08-30T15:37:48;98702.21;;;18.58;76.37
64460;BME280;50828;53.756;21.140;2023-08-30T15:42:56;98707.38;;;18.58;76.47
64460;BME280;50828;53.756;21.140;2023-08-30T15:48:04;98717.05;;;18.61;76.36
64460;BME280;50828;53.756;21.140;2023-08-30T15:53:12;98715.41;;;18.62;76.51
64460;BME280;50828;53.756;21.140;2023-08-30T15:58:33;98711.94;;;18.64;76.69
64460;BME280;50828;53.756;21.140;2023-08-30T16:03:41;98710.90;;;18.66;76.53
64460;BME280;50828;53.756;21.140;2023-08-30T16:08:49;98710.70;;;18.66;76.57
64460;BME280;50828;53.756;21.140;2023-08-30T16:13:57;98720.17;;;18.63;76.43
64460;BME280;50828;53.756;21.140;2023-08-30T16:19:04;98720.69;;;18.61;76.45
64460;BME280;50828;53.756;21.140;2023-08-30T16:24:12;98723.77;;;18.59;76.48
64460;BME280;50828;53.756;21.140;2023-08-30T16:29:32;98728.09;;;18.56;76.34
64460;BME280;50828;53.756;21.140;2023-08-30T16:34:39;98726.92;;;18.53;76.32
64460;BME280;50828;53.756;21.140;2023-08-30T16:39:47;98725.45;;;18.52;76.35
64460;BME280;50828;53.756;21.140;2023-08-30T16:44:55;98722.95;;;18.52;76.26
64460;BME280;50828;53.756;21.140;2023-08-30T16:50:05;98719.59;;;18.51;76.26
64460;BME280;50828;53.756;21.140;2023-08-30T16:55:16;98709.67;;;18.51;76.28
64460;BME280;50828;53.756;21.140;2023-08-30T17:00:25;98705.86;;;18.52;76.54
64460;BME280;50828;53.756;21.140;2023-08-30T17:05:34;98709.38;;;18.52;76.30
64460;BME280;50828;53.756;21.140;2023-08-30T17:11:14;98710.92;;;18.52;76.41
64460;BME280;50828;53.756;21.140;2023-08-30T17:22:34;98693.05;;;18.55;76.41
64460;BME280;50828;53.756;21.140;2023-08-30T17:28:10;98687.41;;;18.58;76.26
64460;BME280;50828;53.756;21.140;2023-08-30T17:40:00;98689.88;;;18.57;76.36
64460;BME280;50828;53.756;21.140;2023-08-30T17:45:13;98706.19;;;18.56;76.21
64460;BME280;50828;53.756;21.140;2023-08-30T17:50:21;98701.29;;;18.53;76.23
64460;BME280;50828;53.756;21.140;2023-08-30T17:55:28;98697.44;;;18.52;76.08
64460;BME280;50828;53.756;21.140;2023-08-30T18:00:48;98694.31;;;18.51;76.22
64460;BME280;50828;53.756;21.140;2023-08-30T18:06:06;98694.38;;;18.52;76.17
64460;BME280;50828;53.756;21.140;2023-08-30T18:11:34;98686.77;;;18.54;75.96
64460;BME280;50828;53.756;21.140;2023-08-30T18:17:09;98680.07;;;18.55;76.09
64460;BME280;50828;53.756;21.140;2023-08-30T18:22:21;98682.02;;;18.55;75.95
64460;BME280;50828;53.756;21.140;2023-08-30T18:27:30;98689.14;;;18.59;75.97
64460;BME280;50828;53.756;21.140;2023-08-30T18:32:46;98685.85;;;18.58;75.83
64460;BME280;50828;53.756;21.140;2023-08-30T18:37:54;98692.21;;;18.62;76.00
64460;BME280;50828;53.756;21.140;2023-08-30T18:43:15;98711.05;;;18.65;75.96
64460;BME280;50828;53.756;21.140;2023-08-30T18:48:28;98722.31;;;18.66;76.10
64460;BME280;50828;53.756;21.140;2023-08-30T18:53:39;98720.66;;;18.68;76.01
64460;BME280;50828;53.756;21.140;2023-08-30T18:58:57;98722.67;;;18.70;75.89
64460;BME280;50828;53.756;21.140;2023-08-30T19:04:30;98726.85;;;18.73;75.86
64460;BME280;50828;53.756;21.140;2023-08-30T19:10:03;98712.95;;;18.73;75.76
64460;BME280;50828;53.756;21.140;2023-08-30T19:15:25;98707.80;;;18.69;75.82
64460;BME280;50828;53.756;21.140;2023-08-30T19:21:03;98716.52;;;18.67;75.83
64460;BME280;50828;53.756;21.140;2023-08-30T19:26:24;98715.41;;;18.64;75.74
64460;BME280;50828;53.756;21.140;2023-08-30T19:32:00;98714.79;;;18.63;75.90
64460;BME280;50828;53.756;21.140;2023-08-30T19:37:19;98710.16;;;18.61;75.95
64460;BME280;50828;53.756;21.140;2023-08-30T19:42:32;98707.72;;;18.59;75.86
64460;BME280;50828;53.756;21.140;2023-08-30T19:47:41;98706.24;;;18.55;75.92
64460;BME280;50828;53.756;21.140;2023-08-30T19:52:50;98703.40;;;18.53;75.78
64460;BME280;50828;53.756;21.140;2023-08-30T19:57:57;98709.19;;;18.50;75.81
64460;BME280;50828;53.756;21.140;2023-08-30T20:03:08;98709.59;;;18.48;75.80
64460;BME280;50828;53.756;21.140;2023-08-30T20:08:18;98709.02;;;18.45;76.04
64460;BME280;50828;53.756;21.140;2023-08-30T20:13:27;98704.58;;;18.43;75.98
64460;BME280;50828;53.756;21.140;2023-08-30T20:18:35;98708.55;;;18.40;76.02
64460;BME280;50828;53.756;21.140;2023-08-30T20:23:49;98713.52;;;18.38;75.97
64460;BME280;50828;53.756;21.140;2023-08-30T20:29:04;98713.06;;;18.36;76.05
64460;BME280;50828;53.756;21.140;2023-08-30T20:34:15;98713.93;;;18.34;75.94
64460;BME280;50828;53.756;21.140;2023-08-30T20:39:22;98715.74;;;18.32;76.15
64460;BME280;50828;53.756;21.140;2023-08-30T20:44:29;98717.34;;;18.30;76.00
64460;BME280;50828;53.756;21.140;2023-08-30T20:49:38;98721.54;;;18.27;76.06
64460;BME280;50828;53.756;21.140;2023-08-30T21:06:49;98726.14;;;18.26;76.20
64460;BME280;50828;53.756;21.140;2023-08-30T21:11:59;98723.23;;;18.24;76.23
64460;BME280;50828;53.756;21.140;2023-08-30T21:17:08;98729.10;;;18.24;76.20
64460;BME280;50828;53.756;21.140;2023-08-30T21:22:16;98730.20;;;18.24;76.15
64460;BME280;50828;53.756;21.140;2023-08-30T21:27:30;98732.83;;;18.23;76.05
64460;BME280;50828;53.756;21.140;2023-08-30T21:32:39;98733.80;;;18.22;76.24
64460;BME280;50828;53.756;21.140;2023-08-30T21:37:49;98737.78;;;18.21;76.09
64460;BME280;50828;53.756;21.140;2023-08-30T21:42:57;98741.66;;;18.22;76.18
64460;BME280;50828;53.756;21.140;2023-08-30T21:48:10;98748.27;;;18.21;76.15
64460;BME280;50828;53.756;21.140;2023-08-30T21:53:37;98746.88;;;18.21;76.29
64460;BME280;50828;53.756;21.140;2023-08-30T21:59:00;98741.41;;;18.22;76.22
64460;BME280;50828;53.756;21.140;2023-08-30T22:04:18;98732.98;;;18.23;76.24
64460;BME280;50828;53.756;21.140;2023-08-30T22:09:25;98739.98;;;18.24;76.35
64460;BME280;50828;53.756;21.140;2023-08-30T22:14:33;98742.38;;;18.26;76.33
64460;BME280;50828;53.756;21.140;2023-08-30T22:19:55;98746.31;;;18.27;76.30
64460;BME280;50828;53.756;21.140;2023-08-30T22:25:02;98744.09;;;18.28;76.40
64460;BME280;50828;53.756;21.140;2023-08-30T22:30:18;98741.73;;;18.29;76.28
64460;BME280;50828;53.756;21.140;2023-08-30T22:35:26;98740.70;;;18.30;76.41
64460;BME280;50828;53.756;21.140;2023-08-30T22:45:45;98738.63;;;18.29;76.17
64460;BME280;50828;53.756;21.140;2023-08-30T22:50:54;98739.13;;;18.30;76.32
64460;BME280;50828;53.756;21.140;2023-08-30T22:56:06;98745.64;;;18.31;76.16
64460;BME280;50828;53.756;21.140;2023-08-30T23:01:16;98748.01;;;18.30;76.08
64460;BME280;50828;53.756;21.140;2023-08-30T23:06:24;98746.53;;;18.29;76.23
64460;BME280;50828;53.756;21.140;2023-08-30T23:11:31;98750.14;;;18.28;76.25
64460;BME280;50828;53.756;21.140;2023-08-30T23:16:39;98752.34;;;18.28;76.31
64460;BME280;50828;53.756;21.140;2023-08-30T23:21:48;98752.90;;;18.27;76.24
64460;BME280;50828;53.756;21.140;2023-08-30T23:26:56;98753.67;;;18.27;76.20
64460;BME280;50828;53.756;21.140;2023-08-30T23:32:07;98754.48;;;18.26;76.14
64460;BME280;50828;53.756;21.140;2023-08-30T23:37:15;98751.30;;;18.23;76.14
64460;BME280;50828;53.756;21.140;2023-08-30T23:42:24;98745.88;;;18.22;76.14
64460;BME280;50828;53.756;21.140;2023-08-30T23:47:33;98743.83;;;18.22;76.27
64460;BME280;50828;53.756;21.140;2023-08-30T23:52:42;98738.98;;;18.20;76.20
64460;BME280;50828;53.756;21.140;2023-08-30T23:57:52;98742.44;;;18.19;76.20
